createdAt,value
2018-06-11T00:00:55.115Z,22.84
2018-06-11T00:03:22.671Z,22.85
2018-06-11T00:05:49.287Z,22.84
2018-06-11T00:08:15.944Z,22.83
2018-06-11T00:10:43.485Z,22.83
2018-06-11T00:13:10.136Z,22.81
2018-06-11T00:15:37.695Z,22.83
2018-06-11T00:18:05.306Z,22.82
2018-06-11T00:20:32.919Z,22.82
2018-06-11T00:22:59.566Z,22.82
2018-06-11T00:25:26.187Z,22.81
2018-06-11T00:27:52.805Z,22.83
2018-06-11T00:30:20.396Z,22.84
2018-06-11T00:32:48.012Z,22.83
2018-06-11T00:35:15.623Z,22.82
2018-06-11T00:37:43.140Z,22.81
2018-06-11T00:40:10.739Z,22.82
2018-06-11T00:42:38.328Z,22.81
2018-06-11T00:45:04.949Z,22.79
2018-06-11T00:47:32.510Z,22.82
2018-06-11T00:50:00.065Z,22.79
2018-06-11T00:52:26.755Z,22.82
2018-06-11T00:54:54.212Z,22.81
2018-06-11T00:57:21.644Z,22.81
2018-06-11T00:59:49.235Z,22.78
2018-06-11T01:02:15.892Z,22.81
2018-06-11T01:04:43.480Z,22.81
2018-06-11T01:07:10.104Z,22.80
2018-06-11T01:09:36.725Z,22.82
2018-06-11T01:12:03.381Z,22.81
2018-06-11T01:14:30.005Z,22.81
2018-06-11T01:16:56.681Z,22.78
2018-06-11T01:19:23.321Z,22.78
2018-06-11T01:21:49.945Z,22.79
2018-06-11T01:24:16.563Z,22.79
2018-06-11T01:26:43.236Z,22.81
2018-06-11T01:29:09.855Z,22.81
2018-06-11T01:31:36.532Z,22.82
2018-06-11T01:34:03.153Z,22.80
2018-06-11T01:36:29.773Z,22.78
2018-06-11T01:38:56.444Z,22.78
2018-06-11T01:41:23.123Z,22.78
2018-06-11T01:43:49.745Z,22.78
2018-06-11T01:46:16.368Z,22.78
2018-06-11T01:48:43.036Z,22.80
2018-06-11T01:51:09.661Z,22.79
2018-06-11T01:53:36.317Z,22.81
2018-06-11T01:56:02.975Z,22.82
2018-06-11T01:58:29.591Z,22.80
2018-06-11T02:00:56.213Z,22.81
2018-06-11T02:03:22.845Z,22.81
2018-06-11T02:05:49.704Z,22.80
2018-06-11T02:08:16.335Z,22.81
2018-06-11T02:10:42.956Z,22.81
2018-06-11T02:13:09.583Z,22.79
2018-06-11T02:15:36.220Z,22.81
2018-06-11T02:18:02.851Z,22.82
2018-06-11T02:20:29.472Z,22.82
2018-06-11T02:22:56.101Z,22.80
2018-06-11T02:25:22.720Z,22.81
2018-06-11T02:27:49.355Z,22.81
2018-06-11T02:30:15.976Z,22.80
2018-06-11T02:32:42.614Z,22.79
2018-06-11T02:35:10.184Z,22.80
2018-06-11T02:37:36.868Z,22.75
2018-06-11T02:40:03.521Z,22.77
2018-06-11T02:42:30.138Z,22.78
2018-06-11T02:44:56.759Z,22.78
2018-06-11T02:47:23.488Z,22.77
2018-06-11T02:49:50.642Z,22.76
2018-06-11T02:52:17.265Z,22.75
2018-06-11T02:54:43.924Z,22.74
2018-06-11T02:57:10.540Z,22.74
2018-06-11T02:59:37.208Z,22.72
2018-06-11T03:02:03.840Z,22.71
2018-06-11T03:04:30.455Z,22.71
2018-06-11T03:06:57.081Z,22.73
2018-06-11T03:09:23.748Z,22.72
2018-06-11T03:11:50.377Z,22.71
2018-06-11T03:14:17.041Z,22.74
2018-06-11T03:16:43.708Z,22.76
2018-06-11T03:19:11.133Z,22.73
2018-06-11T03:21:37.900Z,22.75
2018-06-11T03:24:04.534Z,22.76
2018-06-11T03:26:31.208Z,22.75
2018-06-11T03:28:57.828Z,22.76
2018-06-11T03:31:24.461Z,22.78
2018-06-11T03:33:52.013Z,22.76
2018-06-11T03:36:18.676Z,22.74
2018-06-11T03:38:45.467Z,22.74
2018-06-11T03:41:12.124Z,22.72
2018-06-11T03:43:38.781Z,22.75
2018-06-11T03:46:05.422Z,22.75
2018-06-11T03:48:32.088Z,22.76
2018-06-11T03:50:58.708Z,22.76
2018-06-11T03:53:25.369Z,22.80
2018-06-11T03:55:51.984Z,22.83
2018-06-11T03:58:18.643Z,22.89
2018-06-11T04:00:45.353Z,22.99
2018-06-11T04:03:12.812Z,23.09
2018-06-11T04:05:39.472Z,23.12
2018-06-11T04:08:06.120Z,23.16
2018-06-11T04:10:32.783Z,23.18
2018-06-11T04:12:59.416Z,23.21
2018-06-11T04:15:26.068Z,23.22
2018-06-11T04:17:52.690Z,23.22
2018-06-11T04:20:19.316Z,23.22
2018-06-11T04:22:45.976Z,23.23
2018-06-11T04:25:12.610Z,23.17
2018-06-11T04:27:39.232Z,23.20
2018-06-11T04:30:06.025Z,23.23
2018-06-11T04:32:32.684Z,23.25
2018-06-11T04:34:59.777Z,23.26
2018-06-11T04:37:26.448Z,23.25
2018-06-11T04:39:53.112Z,23.22
2018-06-11T04:42:19.780Z,23.23
2018-06-11T04:44:46.393Z,23.26
2018-06-11T04:47:13.014Z,23.26
2018-06-11T04:49:40.517Z,23.24
2018-06-11T04:52:07.136Z,23.23
2018-06-11T04:54:33.785Z,23.20
2018-06-11T04:57:00.877Z,23.22
2018-06-11T04:59:27.530Z,23.18
2018-06-11T05:01:54.166Z,23.21
2018-06-11T05:04:20.835Z,23.19
2018-06-11T05:06:47.456Z,23.21
2018-06-11T05:09:14.080Z,23.21
2018-06-11T05:11:40.732Z,23.20
2018-06-11T05:14:07.533Z,23.19
2018-06-11T05:16:34.156Z,23.19
2018-06-11T05:19:00.780Z,23.20
2018-06-11T05:21:27.408Z,23.17
2018-06-11T05:23:54.068Z,23.18
2018-06-11T05:26:20.696Z,23.18
2018-06-11T05:28:47.336Z,23.16
2018-06-11T05:31:14.071Z,23.16
2018-06-11T05:33:40.693Z,23.16
2018-06-11T05:36:07.322Z,23.17
2018-06-11T05:38:33.952Z,23.15
2018-06-11T05:41:00.568Z,23.16
2018-06-11T05:43:27.197Z,23.16
2018-06-11T05:45:53.820Z,23.16
2018-06-11T05:48:20.459Z,23.15
2018-06-11T05:50:47.089Z,23.15
2018-06-11T05:53:13.717Z,23.12
2018-06-11T05:55:40.336Z,23.11
2018-06-11T05:58:06.957Z,23.15
2018-06-11T06:00:33.704Z,23.08
2018-06-11T06:03:00.379Z,23.11
2018-06-11T06:05:27.009Z,23.12
2018-06-11T06:07:53.676Z,23.10
2018-06-11T06:10:20.305Z,23.10
2018-06-11T06:12:46.985Z,23.06
2018-06-11T06:15:13.621Z,23.10
2018-06-11T06:17:40.241Z,23.09
2018-06-11T06:20:06.873Z,23.03
2018-06-11T06:22:33.521Z,23.07
2018-06-11T06:25:00.181Z,23.07
2018-06-11T06:27:26.876Z,23.04
2018-06-11T06:29:53.502Z,23.05
2018-06-11T06:32:20.126Z,22.98
2018-06-11T06:34:46.869Z,23.03
2018-06-11T06:37:14.348Z,22.97
2018-06-11T06:39:41.072Z,23.04
2018-06-11T06:42:07.667Z,23.03
2018-06-11T06:44:34.335Z,23.02
2018-06-11T06:47:01.868Z,23.01
2018-06-11T06:49:28.497Z,22.96
2018-06-11T06:51:55.123Z,23.02
2018-06-11T06:54:21.788Z,23.00
2018-06-11T06:56:48.413Z,23.01
2018-06-11T06:59:15.099Z,23.00
2018-06-11T07:01:41.765Z,23.01
2018-06-11T07:04:08.394Z,22.99
2018-06-11T07:06:35.021Z,22.99
2018-06-11T07:09:01.654Z,22.98
2018-06-11T07:11:28.276Z,22.98
2018-06-11T07:13:54.931Z,23.01
2018-06-11T07:16:22.395Z,23.00
2018-06-11T07:18:49.053Z,22.99
2018-06-11T07:21:15.669Z,22.98
2018-06-11T07:23:42.365Z,22.97
2018-06-11T07:26:08.980Z,22.98
2018-06-11T07:28:35.644Z,22.97
2018-06-11T07:31:02.257Z,22.97
2018-06-11T07:33:28.917Z,22.96
2018-06-11T07:35:55.535Z,22.96
2018-06-11T07:38:22.201Z,22.99
2018-06-11T07:40:48.901Z,23.07
2018-06-11T07:43:15.533Z,23.17
2018-06-11T07:45:42.859Z,23.24
2018-06-11T07:48:09.510Z,23.32
2018-06-11T07:50:36.189Z,23.37
2018-06-11T07:53:02.821Z,23.42
2018-06-11T07:55:29.568Z,23.43
2018-06-11T07:57:56.193Z,23.45
2018-06-11T08:00:22.819Z,23.41
2018-06-11T08:02:49.453Z,23.41
2018-06-11T08:05:16.068Z,23.40
2018-06-11T08:07:42.757Z,23.39
2018-06-11T08:10:09.378Z,23.38
2018-06-11T08:12:36.008Z,23.38
2018-06-11T08:15:02.641Z,23.35
2018-06-11T08:17:29.320Z,23.34
2018-06-11T08:19:55.946Z,23.39
2018-06-11T08:22:22.572Z,23.37
2018-06-11T08:24:49.232Z,23.37
2018-06-11T08:27:15.868Z,23.37
2018-06-11T08:29:42.585Z,23.37
2018-06-11T08:32:09.200Z,23.36
2018-06-11T08:34:35.857Z,23.35
2018-06-11T08:37:02.481Z,23.36
2018-06-11T08:39:29.144Z,23.36
2018-06-11T08:41:55.760Z,23.27
2018-06-11T08:44:22.527Z,23.33
2018-06-11T08:46:49.152Z,23.32
2018-06-11T08:49:15.780Z,23.29
2018-06-11T08:51:42.400Z,23.26
2018-06-11T08:54:10.203Z,23.24
2018-06-11T08:56:36.970Z,23.27
2018-06-11T08:59:03.595Z,23.23
2018-06-11T09:01:30.252Z,23.29
2018-06-11T09:03:57.185Z,23.33
2018-06-11T09:06:23.895Z,23.27
2018-06-11T09:08:50.673Z,23.30
2018-06-11T09:11:17.508Z,23.28
2018-06-11T09:13:44.132Z,23.27
2018-06-11T09:16:10.822Z,23.23
2018-06-11T09:18:37.447Z,23.18
2018-06-11T09:21:04.196Z,23.22
2018-06-11T09:23:31.023Z,23.26
2018-06-11T09:25:58.366Z,23.23
2018-06-11T09:28:25.000Z,23.22
2018-06-11T09:30:51.625Z,23.16
2018-06-11T09:33:19.235Z,23.18
2018-06-11T09:35:45.852Z,23.23
2018-06-11T09:38:12.574Z,23.19
2018-06-11T09:40:39.375Z,23.20
2018-06-11T09:43:06.164Z,23.23
2018-06-11T09:45:32.834Z,23.25
2018-06-11T09:47:59.868Z,23.24
2018-06-11T09:50:27.426Z,23.19
2018-06-11T09:52:54.209Z,23.19
2018-06-11T09:55:20.944Z,23.15
2018-06-11T09:57:47.688Z,23.18
2018-06-11T10:00:19.948Z,23.23
2018-06-11T10:02:46.696Z,23.17
2018-06-11T10:05:13.525Z,23.17
2018-06-11T10:07:40.147Z,23.24
2018-06-11T10:10:06.889Z,23.19
2018-06-11T10:12:33.577Z,23.19
2018-06-11T10:15:00.182Z,23.21
2018-06-11T10:17:26.856Z,23.20
2018-06-11T10:19:53.508Z,23.22
2018-06-11T10:22:21.106Z,23.24
2018-06-11T10:24:47.816Z,23.12
2018-06-11T10:27:14.649Z,23.18
2018-06-11T10:29:41.368Z,23.18
2018-06-11T10:32:08.041Z,23.16
2018-06-11T10:34:34.822Z,23.19
2018-06-11T10:37:01.593Z,23.18
2018-06-11T10:39:29.331Z,23.24
2018-06-11T10:41:56.516Z,23.19
2018-06-11T10:44:23.216Z,23.18
2018-06-11T10:46:49.833Z,23.19
2018-06-11T10:49:16.567Z,23.13
2018-06-11T10:51:43.298Z,23.20
2018-06-11T10:54:09.965Z,23.14
2018-06-11T10:56:37.318Z,23.19
2018-06-11T10:59:04.045Z,23.18
2018-06-11T11:01:30.681Z,23.19
2018-06-11T11:03:57.354Z,23.25
2018-06-11T11:06:23.987Z,23.23
2018-06-11T11:08:50.703Z,23.19
2018-06-11T11:11:17.482Z,23.21
2018-06-11T11:13:44.100Z,23.18
2018-06-11T11:16:10.772Z,23.12
2018-06-11T11:18:37.400Z,23.17
2018-06-11T11:21:04.073Z,23.13
2018-06-11T11:23:30.705Z,23.18
2018-06-11T11:25:57.380Z,23.09
2018-06-11T11:28:24.140Z,23.12
2018-06-11T11:30:50.834Z,23.13
2018-06-11T11:33:17.473Z,23.00
2018-06-11T11:35:45.111Z,23.07
2018-06-11T11:38:11.731Z,23.12
2018-06-11T11:40:38.364Z,23.06
2018-06-11T11:43:05.025Z,23.09
2018-06-11T11:45:31.648Z,23.10
2018-06-11T11:47:58.272Z,23.08
2018-06-11T11:50:25.036Z,23.09
2018-06-11T11:52:51.665Z,23.06
2018-06-11T11:55:18.292Z,23.11
2018-06-11T11:57:45.155Z,23.18
2018-06-11T12:00:11.789Z,23.03
2018-06-11T12:02:38.434Z,23.11
2018-06-11T12:05:05.097Z,23.08
2018-06-11T12:07:32.367Z,23.14
2018-06-11T12:09:59.033Z,23.07
2018-06-11T12:12:28.151Z,23.10
2018-06-11T12:14:54.801Z,23.06
2018-06-11T12:17:21.430Z,23.11
2018-06-11T12:19:48.095Z,23.09
2018-06-11T12:22:14.752Z,23.09
2018-06-11T12:24:41.416Z,23.06
2018-06-11T12:27:08.041Z,23.05
2018-06-11T12:29:34.711Z,22.97
2018-06-11T12:32:01.329Z,23.05
2018-06-11T12:34:27.956Z,23.05
2018-06-11T12:36:54.579Z,23.11
2018-06-11T12:39:21.200Z,23.10
2018-06-11T12:41:47.867Z,23.10
2018-06-11T12:44:15.287Z,23.06
2018-06-11T12:46:42.105Z,23.07
2018-06-11T12:49:08.724Z,23.08
2018-06-11T12:51:35.390Z,23.04
2018-06-11T12:54:02.009Z,23.07
2018-06-11T12:56:28.640Z,23.07
2018-06-11T12:58:55.275Z,23.03
2018-06-11T13:01:21.901Z,23.07
2018-06-11T13:03:48.573Z,23.07
2018-06-11T13:06:15.196Z,23.00
2018-06-11T13:08:41.865Z,23.08
2018-06-11T13:11:08.499Z,23.01
2018-06-11T13:13:35.192Z,23.05
2018-06-11T13:16:01.818Z,23.07
2018-06-11T13:18:28.517Z,23.05
2018-06-11T13:20:55.185Z,22.99
2018-06-11T13:23:21.960Z,23.01
2018-06-11T13:25:48.849Z,23.03
2018-06-11T13:28:15.580Z,23.02
2018-06-11T13:30:42.251Z,23.04
2018-06-11T13:33:08.872Z,23.04
2018-06-11T13:35:35.544Z,22.99
2018-06-11T13:38:02.176Z,22.96
2018-06-11T13:40:28.845Z,22.99
2018-06-11T13:42:55.872Z,23.04
2018-06-11T13:45:22.553Z,23.03
2018-06-11T13:47:49.185Z,22.99
2018-06-11T13:50:15.929Z,22.92
2018-06-11T13:52:42.944Z,22.93
2018-06-11T13:55:09.633Z,22.91
2018-06-11T13:57:36.325Z,22.97
2018-06-11T14:00:02.973Z,22.96
2018-06-11T14:02:29.600Z,22.96
2018-06-11T14:04:56.228Z,22.95
2018-06-11T14:07:22.913Z,23.03
2018-06-11T14:09:49.544Z,22.98
2018-06-11T14:12:16.212Z,22.99
2018-06-11T14:14:42.844Z,22.93
2018-06-11T14:17:09.532Z,22.97
2018-06-11T14:19:36.158Z,22.94
2018-06-11T14:22:02.816Z,22.97
2018-06-11T14:24:29.481Z,22.96
2018-06-11T14:26:56.125Z,22.95
2018-06-11T14:29:22.796Z,22.92
2018-06-11T14:31:49.437Z,22.94
2018-06-11T14:34:16.065Z,22.86
2018-06-11T14:36:42.685Z,22.86
2018-06-11T14:39:09.324Z,22.91
2018-06-11T14:41:35.944Z,22.91
2018-06-11T14:44:02.633Z,22.91
2018-06-11T14:46:29.268Z,22.86
2018-06-11T14:48:55.894Z,22.88
2018-06-11T14:51:22.532Z,22.91
2018-06-11T14:53:49.161Z,22.97
2018-06-11T14:56:15.788Z,22.92
2018-06-11T14:58:42.419Z,22.88
2018-06-11T15:01:09.032Z,22.94
2018-06-11T15:03:35.654Z,22.93
2018-06-11T15:06:02.320Z,22.90
2018-06-11T15:08:28.948Z,22.87
2018-06-11T15:10:55.627Z,22.88
2018-06-11T15:13:22.313Z,22.94
2018-06-11T15:15:48.977Z,22.90
2018-06-11T15:18:15.600Z,22.92
2018-06-11T15:20:43.254Z,22.89
2018-06-11T15:23:09.872Z,22.91
2018-06-11T15:25:36.608Z,22.91
2018-06-11T15:28:03.237Z,22.92
2018-06-11T15:30:29.872Z,22.87
2018-06-11T15:32:56.492Z,22.88
2018-06-11T15:35:23.113Z,22.87
2018-06-11T15:37:49.737Z,22.88
2018-06-11T15:40:16.440Z,22.89
2018-06-11T15:42:43.068Z,22.90
2018-06-11T15:45:09.694Z,22.89
2018-06-11T15:47:36.343Z,22.90
2018-06-11T15:50:03.060Z,22.88
2018-06-11T15:52:29.667Z,22.86
2018-06-11T15:54:56.307Z,22.92
2018-06-11T15:57:22.932Z,22.90
2018-06-11T15:59:49.549Z,22.89
2018-06-11T16:02:16.196Z,22.88
2018-06-11T16:04:42.864Z,22.86
2018-06-11T16:07:09.492Z,22.86
2018-06-11T16:09:36.117Z,22.87
2018-06-11T16:12:02.813Z,22.85
2018-06-11T16:14:29.401Z,22.86
2018-06-11T16:16:56.022Z,22.86
2018-06-11T16:19:22.639Z,22.86
2018-06-11T16:21:49.336Z,22.87
2018-06-11T16:24:15.962Z,22.85
2018-06-11T16:26:42.588Z,22.87
2018-06-11T16:29:09.219Z,22.84
2018-06-11T16:31:35.901Z,22.82
2018-06-11T16:34:02.531Z,22.86
2018-06-11T16:36:29.169Z,22.87
2018-06-11T16:38:55.825Z,22.86
2018-06-11T16:41:22.500Z,22.86
2018-06-11T16:43:49.189Z,22.85
2018-06-11T16:46:15.830Z,22.84
2018-06-11T16:48:42.590Z,22.87
2018-06-11T16:51:09.210Z,22.87
2018-06-11T16:53:35.885Z,22.85
2018-06-11T16:56:02.508Z,22.85
2018-06-11T16:58:29.186Z,22.87
2018-06-11T17:00:59.895Z,22.86
2018-06-11T17:03:26.528Z,22.84
2018-06-11T17:05:53.153Z,22.81
2018-06-11T17:08:19.814Z,22.85
2018-06-11T17:10:46.441Z,22.79
2018-06-11T17:13:13.095Z,22.81
2018-06-11T17:15:39.720Z,22.83
2018-06-11T17:18:06.428Z,22.78
2018-06-11T17:20:33.049Z,22.84
2018-06-11T17:22:59.737Z,22.81
2018-06-11T17:25:26.460Z,22.83
2018-06-11T17:27:53.084Z,22.79
2018-06-11T17:30:19.734Z,22.81
2018-06-11T17:32:46.355Z,22.82
2018-06-11T17:35:13.041Z,22.83
2018-06-11T17:37:39.669Z,22.82
2018-06-11T17:40:06.285Z,22.82
2018-06-11T17:42:32.907Z,22.81
2018-06-11T17:44:59.536Z,22.77
2018-06-11T17:47:26.161Z,22.76
2018-06-11T17:49:52.788Z,22.75
2018-06-11T17:52:19.445Z,22.80
2018-06-11T17:54:46.069Z,22.82
2018-06-11T17:57:12.752Z,22.78
2018-06-11T17:59:39.401Z,22.85
2018-06-11T18:02:06.032Z,22.91
2018-06-11T18:04:32.661Z,23.04
2018-06-11T18:06:59.288Z,23.15
2018-06-11T18:09:25.965Z,23.23
2018-06-11T18:11:56.714Z,23.29
2018-06-11T18:14:23.383Z,23.28
2018-06-11T18:16:50.016Z,23.32
2018-06-11T18:19:16.684Z,23.37
2018-06-11T18:21:43.316Z,23.35
2018-06-11T18:24:09.977Z,23.35
2018-06-11T18:26:36.608Z,23.33
2018-06-11T18:29:03.284Z,23.32
2018-06-11T18:31:29.957Z,23.27
2018-06-11T18:33:56.627Z,23.28
2018-06-11T18:36:23.355Z,23.28
2018-06-11T18:38:50.024Z,23.31
2018-06-11T18:41:16.660Z,23.26
2018-06-11T18:43:43.300Z,23.29
2018-06-11T18:46:09.966Z,23.24
2018-06-11T18:48:36.605Z,23.28
2018-06-11T18:51:03.282Z,23.29
2018-06-11T18:53:29.961Z,23.29
2018-06-11T18:55:56.657Z,23.29
2018-06-11T18:58:23.464Z,23.28
2018-06-11T19:00:50.312Z,23.28
2018-06-11T19:03:16.981Z,23.29
2018-06-11T19:05:43.624Z,23.28
2018-06-11T19:08:10.257Z,23.26
2018-06-11T19:10:36.880Z,23.24
2018-06-11T19:13:03.513Z,23.23
2018-06-11T19:15:30.145Z,23.20
2018-06-11T19:17:56.782Z,23.20
2018-06-11T19:20:23.433Z,23.19
2018-06-11T19:22:50.080Z,23.19
2018-06-11T19:25:16.713Z,23.20
2018-06-11T19:27:43.391Z,23.18
2018-06-11T19:30:10.194Z,23.17
2018-06-11T19:32:36.881Z,23.17
2018-06-11T19:35:03.603Z,23.16
2018-06-11T19:37:30.223Z,23.15
2018-06-11T19:39:56.853Z,23.15
2018-06-11T19:42:23.490Z,23.15
2018-06-11T19:44:50.145Z,23.13
2018-06-11T19:47:16.788Z,23.11
2018-06-11T19:49:43.441Z,23.12
2018-06-11T19:52:10.451Z,23.10
2018-06-11T19:54:37.157Z,23.12
2018-06-11T19:57:03.841Z,23.11
2018-06-11T19:59:30.473Z,23.11
2018-06-11T20:01:57.153Z,23.11
2018-06-11T20:04:23.797Z,23.09
2018-06-11T20:06:50.433Z,23.10
2018-06-11T20:09:17.098Z,23.09
2018-06-11T20:11:43.766Z,23.09
2018-06-11T20:14:10.393Z,23.07
2018-06-11T20:16:37.075Z,23.07
2018-06-11T20:19:03.728Z,23.05
2018-06-11T20:21:30.530Z,23.07
2018-06-11T20:23:57.161Z,23.06
2018-06-11T20:26:23.800Z,23.05
2018-06-11T20:28:50.473Z,23.02
2018-06-11T20:31:17.101Z,23.01
2018-06-11T20:33:43.768Z,23.01
2018-06-11T20:36:10.409Z,23.03
2018-06-11T20:38:37.072Z,23.01
2018-06-11T20:41:03.695Z,23.04
2018-06-11T20:43:30.527Z,23.01
2018-06-11T20:45:57.156Z,22.98
2018-06-11T20:48:23.796Z,23.01
2018-06-11T20:50:50.465Z,22.97
2018-06-11T20:53:17.104Z,22.95
2018-06-11T20:55:43.777Z,22.99
2018-06-11T20:58:10.406Z,22.96
2018-06-11T21:00:37.077Z,22.98
2018-06-11T21:03:03.720Z,22.97
2018-06-11T21:05:30.416Z,22.98
2018-06-11T21:07:58.220Z,22.98
2018-06-11T21:10:24.837Z,22.98
2018-06-11T21:12:51.497Z,22.96
2018-06-11T21:15:18.205Z,22.96
2018-06-11T21:17:44.863Z,22.94
2018-06-11T21:20:11.498Z,22.95
2018-06-11T21:22:38.750Z,23.00
2018-06-11T21:25:05.491Z,23.02
2018-06-11T21:27:32.336Z,23.11
2018-06-11T21:29:59.113Z,23.17
2018-06-11T21:32:25.778Z,23.27
2018-06-11T21:34:52.458Z,23.25
2018-06-11T21:37:19.237Z,23.32
2018-06-11T21:39:45.945Z,23.36
2018-06-11T21:42:12.580Z,23.39
2018-06-11T21:44:39.316Z,23.37
2018-06-11T21:47:05.956Z,23.39
2018-06-11T21:49:32.584Z,23.42
2018-06-11T21:51:59.248Z,23.35
2018-06-11T21:54:25.872Z,23.36
2018-06-11T21:56:52.564Z,23.33
2018-06-11T21:59:19.268Z,23.33
2018-06-11T22:01:45.953Z,23.32
2018-06-11T22:04:12.581Z,23.31
2018-06-11T22:06:39.249Z,23.31
2018-06-11T22:09:06.724Z,23.28
2018-06-11T22:11:33.395Z,23.28
2018-06-11T22:14:00.105Z,23.30
2018-06-11T22:16:26.732Z,23.29
2018-06-11T22:18:53.352Z,23.30
2018-06-11T22:21:19.981Z,23.28
2018-06-11T22:23:46.609Z,23.25
2018-06-11T22:26:13.232Z,23.26
2018-06-11T22:28:39.849Z,23.26
2018-06-11T22:31:06.513Z,23.20
2018-06-11T22:33:33.135Z,23.19
2018-06-11T22:35:59.753Z,23.22
2018-06-11T22:38:26.392Z,23.17
2018-06-11T22:40:53.012Z,23.16
2018-06-11T22:43:19.659Z,23.14
2018-06-11T22:45:46.294Z,23.13
2018-06-11T22:48:12.925Z,23.13
2018-06-11T22:50:39.555Z,23.16
2018-06-11T22:53:06.224Z,23.14
2018-06-11T22:55:32.843Z,23.13
2018-06-11T22:57:59.465Z,23.12
2018-06-11T23:00:27.028Z,23.13
2018-06-11T23:02:53.653Z,23.11
2018-06-11T23:05:20.277Z,23.12
2018-06-11T23:07:46.948Z,23.12
2018-06-11T23:10:13.563Z,23.11
2018-06-11T23:12:40.242Z,23.12
2018-06-11T23:15:06.872Z,23.08
2018-06-11T23:17:33.503Z,23.07
2018-06-11T23:20:00.149Z,23.06
2018-06-11T23:22:26.777Z,23.03
2018-06-11T23:24:53.458Z,23.09
2018-06-11T23:27:20.087Z,23.08
2018-06-11T23:29:46.764Z,23.08
2018-06-11T23:32:13.388Z,23.10
2018-06-11T23:34:40.045Z,23.08
2018-06-11T23:37:06.667Z,23.08
2018-06-11T23:39:33.338Z,23.07
2018-06-11T23:42:00.175Z,23.09
2018-06-11T23:44:26.925Z,23.09
2018-06-11T23:46:53.553Z,23.09
2018-06-11T23:49:20.211Z,23.02
2018-06-11T23:51:46.829Z,23.04
2018-06-11T23:54:13.484Z,23.04
2018-06-11T23:56:40.104Z,23.04
2018-06-11T23:59:06.773Z,23.06
